createdAt,value
2018-07-09T00:01:00.595Z,95.30
2018-07-09T00:03:29.438Z,95.10
2018-07-09T00:05:58.071Z,94.90
2018-07-09T00:08:26.574Z,95.10
2018-07-09T00:11:02.555Z,95.40
2018-07-09T00:13:31.624Z,95.40
2018-07-09T00:16:00.331Z,95.70
2018-07-09T00:18:29.205Z,96.20
2018-07-09T00:20:57.713Z,96.30
2018-07-09T00:23:26.564Z,96.30
2018-07-09T00:25:55.888Z,96.40
2018-07-09T00:28:24.960Z,96.20
2018-07-09T00:30:53.874Z,96.20
2018-07-09T00:35:50.935Z,95.70
2018-07-09T00:38:19.959Z,95.40
2018-07-09T00:40:48.505Z,95.30
2018-07-09T00:43:17.196Z,95.70
2018-07-09T00:45:45.679Z,95.40
2018-07-09T00:48:14.171Z,95.20
2018-07-09T00:50:43.240Z,95.10
2018-07-09T00:53:11.763Z,96.00
2018-07-09T00:55:40.263Z,96.90
2018-07-09T00:58:08.934Z,96.80
2018-07-09T01:00:37.416Z,96.80
2018-07-09T01:03:06.153Z,96.80
2018-07-09T01:05:34.711Z,97.00
2018-07-09T01:08:03.426Z,96.90
2018-07-09T01:10:31.964Z,96.90
2018-07-09T01:13:00.498Z,96.90
2018-07-09T01:15:29.292Z,96.90
2018-07-09T01:17:58.088Z,97.20
2018-07-09T01:20:27.608Z,97.30
2018-07-09T01:22:56.105Z,97.50
2018-07-09T01:25:24.666Z,97.50
2018-07-09T01:27:53.332Z,97.60
2018-07-09T01:30:22.080Z,97.80
2018-07-09T01:32:50.595Z,97.90
2018-07-09T01:35:19.078Z,97.90
2018-07-09T01:37:47.621Z,97.70
2018-07-09T01:40:16.248Z,97.70
2018-07-09T01:45:13.264Z,97.00
2018-07-09T01:47:41.771Z,96.80
2018-07-09T01:50:10.302Z,96.90
2018-07-09T01:52:39.046Z,97.10
2018-07-09T01:55:07.532Z,97.50
2018-07-09T01:57:36.232Z,97.80
2018-07-09T02:02:33.942Z,98.60
2018-07-09T02:05:02.445Z,98.60
2018-07-09T02:07:31.458Z,98.40
2018-07-09T02:09:59.940Z,98.40
2018-07-09T02:12:28.604Z,98.70
2018-07-09T02:14:57.085Z,98.90
2018-07-09T02:17:25.671Z,98.80
2018-07-09T02:19:54.149Z,98.70
2018-07-09T02:22:22.748Z,98.30
2018-07-09T02:24:51.273Z,98.10
2018-07-09T02:27:19.766Z,97.90
2018-07-09T02:29:48.273Z,97.50
2018-07-09T02:32:16.775Z,97.50
2018-07-09T02:34:45.339Z,97.60
2018-07-09T02:37:13.823Z,98.40
2018-07-09T02:39:42.383Z,99.00
2018-07-09T02:42:11.111Z,99.00
2018-07-09T02:44:39.664Z,99.20
2018-07-09T02:47:08.162Z,98.80
2018-07-09T02:49:36.673Z,99.60
2018-07-09T02:52:05.160Z,99.20
2018-07-09T02:54:33.758Z,98.80
2018-07-09T02:57:02.364Z,98.30
2018-07-09T02:59:30.860Z,98.30
2018-07-09T03:01:59.671Z,98.70
2018-07-09T03:04:28.184Z,99.00
2018-07-09T03:06:56.681Z,99.20
2018-07-09T03:09:25.299Z,99.50
2018-07-09T03:11:53.820Z,99.60
2018-07-09T03:14:22.272Z,99.70
2018-07-09T03:16:50.795Z,99.70
2018-07-09T03:19:19.297Z,99.60
2018-07-09T03:21:47.804Z,99.20
2018-07-09T03:24:20.308Z,99.00
2018-07-09T03:26:48.863Z,98.90
2018-07-09T03:29:17.354Z,98.60
2018-07-09T03:31:46.305Z,98.70
2018-07-09T03:34:14.808Z,99.20
2018-07-09T03:36:43.473Z,98.90
2018-07-09T03:39:11.956Z,99.20
2018-07-09T03:41:40.549Z,99.40
2018-07-09T03:44:09.322Z,99.60
2018-07-09T03:46:38.008Z,99.70
2018-07-09T03:49:06.537Z,99.80
2018-07-09T03:51:35.157Z,99.80
2018-07-09T03:54:03.840Z,99.60
2018-07-09T03:56:32.342Z,99.60
2018-07-09T03:59:00.967Z,99.40
2018-07-09T04:01:29.654Z,98.90
2018-07-09T04:03:58.127Z,98.70
2018-07-09T04:06:26.693Z,98.60
2018-07-09T04:08:55.249Z,98.70
2018-07-09T04:11:23.770Z,98.60
2018-07-09T04:13:52.898Z,98.50
2018-07-09T04:16:21.419Z,98.80
2018-07-09T04:18:49.916Z,98.80
2018-07-09T04:21:18.559Z,98.90
2018-07-09T04:23:47.270Z,98.90
2018-07-09T04:26:15.857Z,98.70
2018-07-09T04:28:44.297Z,98.60
2018-07-09T04:31:12.865Z,98.10
2018-07-09T04:33:41.503Z,97.90
2018-07-09T04:36:10.243Z,97.80
2018-07-09T04:38:38.780Z,97.80
2018-07-09T04:41:07.300Z,97.90
2018-07-09T04:43:35.904Z,98.10
2018-07-09T04:48:33.551Z,99.10
2018-07-09T04:51:02.075Z,99.10
2018-07-09T04:53:30.585Z,98.80
2018-07-09T04:55:59.433Z,98.90
2018-07-09T04:58:28.045Z,99.10
2018-07-09T05:00:56.655Z,99.10
2018-07-09T05:03:25.345Z,99.10
2018-07-09T05:05:54.106Z,98.90
2018-07-09T05:08:22.760Z,98.80
2018-07-09T05:10:51.443Z,98.80
2018-07-09T05:13:20.057Z,99.00
2018-07-09T05:15:48.544Z,98.90
2018-07-09T05:18:17.195Z,98.40
2018-07-09T05:20:45.722Z,98.40
2018-07-09T05:23:14.445Z,98.20
2018-07-09T05:25:43.141Z,98.30
2018-07-09T05:28:11.794Z,97.90
2018-07-09T05:30:40.635Z,97.60
2018-07-09T05:33:09.304Z,97.50
2018-07-09T05:35:37.759Z,97.00
2018-07-09T05:38:06.716Z,96.70
2018-07-09T05:40:35.710Z,96.40
2018-07-09T05:43:04.414Z,96.40
2018-07-09T05:45:32.927Z,96.40
2018-07-09T05:48:01.638Z,96.20
2018-07-09T05:50:30.126Z,96.10
2018-07-09T05:52:59.236Z,96.30
2018-07-09T05:55:27.821Z,96.60
2018-07-09T05:57:56.540Z,96.50
2018-07-09T06:00:25.169Z,96.20
2018-07-09T06:02:53.700Z,96.60
2018-07-09T06:05:22.219Z,96.30
2018-07-09T06:07:51.493Z,96.00
2018-07-09T06:10:20.044Z,96.60
2018-07-09T06:12:48.584Z,96.90
2018-07-09T06:15:17.231Z,96.70
2018-07-09T06:17:45.747Z,96.20
2018-07-09T06:20:14.642Z,95.50
2018-07-09T06:22:43.296Z,95.70
2018-07-09T06:25:11.839Z,95.80
2018-07-09T06:27:40.372Z,95.50
2018-07-09T06:30:08.893Z,95.20
2018-07-09T06:32:37.377Z,95.00
2018-07-09T06:35:06.153Z,95.30
2018-07-09T06:37:34.824Z,95.10
2018-07-09T06:40:03.436Z,94.90
2018-07-09T06:42:31.967Z,94.40
2018-07-09T06:45:00.482Z,93.90
2018-07-09T06:47:29.040Z,93.80
2018-07-09T06:49:57.530Z,93.20
2018-07-09T06:52:26.056Z,92.40
2018-07-09T06:54:54.731Z,92.30
2018-07-09T06:57:23.332Z,91.90
2018-07-09T06:59:51.898Z,91.60
2018-07-09T07:02:20.458Z,91.70
2018-07-09T07:04:49.042Z,91.20
2018-07-09T07:07:17.747Z,90.70
2018-07-09T07:09:46.497Z,90.60
2018-07-09T07:12:15.646Z,90.50
2018-07-09T07:14:44.280Z,90.20
2018-07-09T07:19:41.012Z,89.60
2018-07-09T07:22:09.609Z,88.80
2018-07-09T07:24:38.339Z,88.30
2018-07-09T07:27:06.848Z,88.30
2018-07-09T07:29:35.382Z,87.60
2018-07-09T07:32:03.988Z,87.90
2018-07-09T07:34:32.612Z,87.20
2018-07-09T07:37:01.279Z,87.60
2018-07-09T07:39:29.842Z,87.10
2018-07-09T07:41:58.484Z,87.10
2018-07-09T07:44:32.340Z,86.50
2018-07-09T07:47:00.895Z,86.40
2018-07-09T07:49:29.400Z,85.90
2018-07-09T07:51:57.983Z,86.10
2018-07-09T07:54:26.521Z,84.40
2018-07-09T07:56:55.211Z,84.50
2018-07-09T07:59:23.901Z,83.40
2018-07-09T08:01:52.512Z,83.70
2018-07-09T08:04:21.111Z,83.20
2018-07-09T08:06:49.792Z,82.10
2018-07-09T08:09:18.769Z,81.50
2018-07-09T08:11:49.132Z,81.40
2018-07-09T08:14:15.935Z,81.30
2018-07-09T08:16:44.517Z,80.20
2018-07-09T08:19:13.016Z,80.20
2018-07-09T08:21:42.769Z,80.20
2018-07-09T08:24:11.268Z,79.70
2018-07-09T08:29:08.118Z,78.70
2018-07-09T08:31:36.836Z,78.10
2018-07-09T08:34:05.718Z,77.50
2018-07-09T08:36:34.483Z,75.60
2018-07-09T08:39:03.167Z,74.60
2018-07-09T08:41:31.972Z,74.20
2018-07-09T08:44:00.461Z,73.40
2018-07-09T08:46:29.116Z,72.10
2018-07-09T08:48:57.744Z,72.20
2018-07-09T08:51:26.496Z,71.30
2018-07-09T08:53:55.043Z,70.90
2018-07-09T08:56:24.004Z,71.30
2018-07-09T08:58:52.605Z,69.90
2018-07-09T09:01:21.988Z,68.70
2018-07-09T09:03:50.803Z,69.40
2018-07-09T09:08:47.631Z,66.10
2018-07-09T09:11:16.406Z,65.20
2018-07-09T09:16:13.347Z,65.50
2018-07-09T09:18:41.837Z,66.40
2018-07-09T09:21:10.951Z,66.10
2018-07-09T09:26:07.747Z,64.80
2018-07-09T09:28:36.435Z,64.70
2018-07-09T09:31:05.415Z,65.10
2018-07-09T09:33:33.936Z,65.70
2018-07-09T09:36:02.437Z,64.90
2018-07-09T09:38:31.014Z,64.50
2018-07-09T09:40:59.757Z,64.70
2018-07-09T09:43:28.322Z,64.70
2018-07-09T09:45:56.940Z,64.20
2018-07-09T09:48:25.827Z,62.80
2018-07-09T09:50:54.873Z,61.40
2018-07-09T09:53:23.470Z,63.20
2018-07-09T09:55:51.990Z,63.40
2018-07-09T09:58:20.676Z,62.60
2018-07-09T10:00:50.580Z,61.40
2018-07-09T10:03:19.280Z,61.40
2018-07-09T10:05:48.818Z,61.00
2018-07-09T10:10:46.053Z,59.90
2018-07-09T10:13:14.721Z,60.90
2018-07-09T10:15:43.427Z,60.80
2018-07-09T10:18:11.993Z,61.70
2018-07-09T10:20:40.579Z,63.60
2018-07-09T10:23:09.904Z,64.60
2018-07-09T10:25:38.364Z,64.00
2018-07-09T10:28:06.893Z,65.30
2018-07-09T10:33:03.681Z,62.10
2018-07-09T10:35:32.384Z,60.90
2018-07-09T10:38:00.859Z,60.60
2018-07-09T10:40:29.772Z,59.70
2018-07-09T10:42:58.375Z,59.00
2018-07-09T10:45:26.954Z,57.70
2018-07-09T10:47:55.457Z,57.00
2018-07-09T10:50:24.017Z,57.80
2018-07-09T10:52:52.734Z,58.20
2018-07-09T10:55:21.666Z,57.30
2018-07-09T10:57:50.126Z,57.40
2018-07-09T11:00:18.714Z,60.10
2018-07-09T11:02:47.375Z,60.50
2018-07-09T11:05:16.131Z,62.40
2018-07-09T11:07:44.981Z,61.20
2018-07-09T11:10:13.723Z,60.80
2018-07-09T11:12:42.521Z,60.30
2018-07-09T11:15:11.067Z,59.10
2018-07-09T11:17:39.806Z,55.90
2018-07-09T11:20:08.351Z,54.60
2018-07-09T11:22:37.178Z,53.80
2018-07-09T11:25:05.693Z,51.30
2018-07-09T11:27:34.535Z,49.70
2018-07-09T11:32:31.388Z,51.60
2018-07-09T11:35:00.579Z,51.50
2018-07-09T11:39:58.766Z,52.90
2018-07-09T11:42:27.577Z,53.20
2018-07-09T11:44:56.437Z,51.40
2018-07-09T11:47:25.443Z,51.70
2018-07-09T11:49:53.940Z,53.10
2018-07-09T11:52:22.534Z,53.60
2018-07-09T11:54:51.334Z,54.10
2018-07-09T11:57:20.014Z,53.80
2018-07-09T11:59:48.635Z,55.10
2018-07-09T12:02:17.201Z,55.00
2018-07-09T12:04:46.437Z,54.70
2018-07-09T12:07:15.287Z,55.40
2018-07-09T12:09:44.266Z,56.90
2018-07-09T12:12:13.107Z,56.60
2018-07-09T12:14:41.863Z,57.90
2018-07-09T12:17:10.556Z,59.00
2018-07-09T12:19:39.153Z,60.10
2018-07-09T12:22:07.919Z,60.30
2018-07-09T12:24:36.579Z,59.90
2018-07-09T12:27:05.552Z,58.20
2018-07-09T12:29:34.373Z,58.10
2018-07-09T12:32:03.048Z,59.80
2018-07-09T12:34:31.605Z,60.10
2018-07-09T12:37:00.323Z,61.90
2018-07-09T12:39:28.911Z,61.20
2018-07-09T12:41:57.691Z,61.70
2018-07-09T12:44:26.530Z,65.60
2018-07-09T12:46:55.384Z,68.00
2018-07-09T12:49:23.866Z,69.40
2018-07-09T12:51:52.568Z,69.70
2018-07-09T12:54:21.177Z,69.00
2018-07-09T12:56:49.735Z,70.30
2018-07-09T12:59:18.633Z,71.30
2018-07-09T13:01:47.167Z,72.80
2018-07-09T13:04:15.690Z,72.90
2018-07-09T13:06:44.835Z,73.20
2018-07-09T13:09:13.512Z,73.50
2018-07-09T13:11:42.415Z,72.60
2018-07-09T13:14:11.548Z,73.50
2018-07-09T13:16:40.379Z,73.50
2018-07-09T13:19:09.160Z,72.20
2018-07-09T13:21:37.824Z,70.80
2018-07-09T13:24:06.547Z,70.50
2018-07-09T13:26:35.682Z,70.10
2018-07-09T13:29:04.304Z,70.30
2018-07-09T13:31:33.042Z,70.20
2018-07-09T13:34:01.842Z,71.50
2018-07-09T13:36:30.692Z,72.30
2018-07-09T13:38:59.460Z,72.70
2018-07-09T13:41:28.760Z,72.00
2018-07-09T13:43:57.506Z,70.80
2018-07-09T13:46:26.180Z,71.60
2018-07-09T13:48:54.860Z,72.70
2018-07-09T13:51:23.583Z,73.00
2018-07-09T13:53:52.210Z,72.40
2018-07-09T13:56:20.863Z,72.10
2018-07-09T13:58:49.783Z,71.10
2018-07-09T14:01:18.548Z,70.90
2018-07-09T14:03:47.356Z,69.40
2018-07-09T14:06:15.915Z,68.90
2018-07-09T14:08:44.765Z,68.20
2018-07-09T14:11:13.635Z,69.20
2018-07-09T14:13:42.178Z,70.20
2018-07-09T14:16:10.736Z,68.70
2018-07-09T14:18:39.760Z,68.50
2018-07-09T14:21:08.757Z,68.60
2018-07-09T14:23:37.328Z,67.20
2018-07-09T14:26:06.331Z,63.60
2018-07-09T14:28:35.431Z,62.50
2018-07-09T14:31:04.227Z,62.60
2018-07-09T14:36:01.434Z,62.90
2018-07-09T14:38:29.950Z,63.60
2018-07-09T14:40:58.735Z,63.80
2018-07-09T14:43:27.539Z,65.10
2018-07-09T14:45:56.053Z,64.20
2018-07-09T14:48:24.590Z,64.70
2018-07-09T14:50:53.860Z,61.60
2018-07-09T14:53:22.666Z,55.70
2018-07-09T14:55:51.256Z,51.80
2018-07-09T14:58:19.936Z,50.60
2018-07-09T15:00:48.607Z,52.10
2018-07-09T15:03:17.145Z,55.10
2018-07-09T15:05:45.742Z,57.30
2018-07-09T15:08:14.448Z,58.50
2018-07-09T15:10:43.390Z,60.90
2018-07-09T15:13:12.737Z,63.50
2018-07-09T15:15:41.559Z,64.10
2018-07-09T15:18:10.069Z,66.80
2018-07-09T15:20:38.701Z,67.00
2018-07-09T15:23:07.296Z,66.20
2018-07-09T15:25:35.894Z,67.00
2018-07-09T15:28:04.543Z,69.40
2018-07-09T15:30:33.180Z,70.60
2018-07-09T15:33:01.939Z,79.50
2018-07-09T15:35:30.868Z,73.10
2018-07-09T15:37:59.796Z,77.20
2018-07-09T15:40:28.454Z,81.10
2018-07-09T15:42:57.270Z,80.80
2018-07-09T15:45:26.212Z,77.90
2018-07-09T15:47:55.128Z,78.80
2018-07-09T15:52:52.231Z,72.00
2018-07-09T15:55:20.884Z,71.90
2018-07-09T15:57:49.522Z,71.90
2018-07-09T16:00:18.064Z,73.90
2018-07-09T16:02:47.112Z,71.90
2018-07-09T16:05:15.773Z,73.70
2018-07-09T16:07:44.583Z,69.60
2018-07-09T16:10:13.317Z,74.30
2018-07-09T16:12:42.113Z,71.90
2018-07-09T16:15:10.818Z,73.10
2018-07-09T16:17:39.586Z,75.10
2018-07-09T16:20:08.205Z,73.70
2018-07-09T16:22:37.026Z,75.30
2018-07-09T16:25:05.703Z,73.90
2018-07-09T16:27:34.426Z,72.10
2018-07-09T16:30:03.011Z,72.20
2018-07-09T16:32:31.840Z,72.80
2018-07-09T16:35:00.412Z,72.70
2018-07-09T16:37:29.066Z,73.00
2018-07-09T16:39:57.651Z,73.60
2018-07-09T16:42:26.550Z,73.60
2018-07-09T16:44:55.436Z,74.10
2018-07-09T16:47:23.985Z,74.70
2018-07-09T16:49:52.732Z,74.60
2018-07-09T16:52:21.635Z,74.30
2018-07-09T16:54:50.302Z,74.90
2018-07-09T16:57:18.799Z,75.50
2018-07-09T16:59:47.599Z,75.70
2018-07-09T17:02:16.504Z,76.70
2018-07-09T17:07:13.529Z,78.60
2018-07-09T17:09:42.086Z,79.10
2018-07-09T17:12:10.663Z,79.40
2018-07-09T17:14:39.634Z,79.80
2018-07-09T17:17:08.467Z,80.20
2018-07-09T17:19:37.285Z,79.80
2018-07-09T17:22:05.824Z,79.70
2018-07-09T17:24:34.505Z,79.90
2018-07-09T17:27:03.371Z,80.00
2018-07-09T17:29:32.482Z,80.30
2018-07-09T17:32:01.404Z,81.00
2018-07-09T17:34:30.281Z,80.80
2018-07-09T17:36:59.091Z,82.20
2018-07-09T17:39:27.708Z,84.70
2018-07-09T17:41:57.254Z,87.10
2018-07-09T17:44:26.000Z,91.30
2018-07-09T17:46:54.833Z,93.50
2018-07-09T17:49:23.664Z,92.90
2018-07-09T17:51:52.509Z,94.10
2018-07-09T17:54:21.392Z,96.00
2018-07-09T17:56:50.481Z,96.90
2018-07-09T17:59:19.204Z,96.80
2018-07-09T18:01:48.161Z,96.20
2018-07-09T18:04:16.848Z,97.20
2018-07-09T18:06:45.725Z,96.60
2018-07-09T18:09:14.525Z,96.00
2018-07-09T18:11:43.168Z,97.00
2018-07-09T18:14:11.854Z,96.20
2018-07-09T18:16:40.672Z,98.40
2018-07-09T18:19:09.767Z,98.50
2018-07-09T18:24:07.068Z,97.60
2018-07-09T18:26:36.260Z,97.10
2018-07-09T18:29:05.261Z,97.10
2018-07-09T18:31:33.774Z,97.30
2018-07-09T18:34:02.570Z,97.50
2018-07-09T18:36:31.127Z,96.50
2018-07-09T18:39:00.075Z,97.00
2018-07-09T18:41:29.124Z,96.80
2018-07-09T18:43:57.896Z,96.40
2018-07-09T18:46:26.580Z,97.10
2018-07-09T18:48:55.195Z,96.90
2018-07-09T18:51:24.180Z,96.90
2018-07-09T18:53:52.856Z,96.10
2018-07-09T18:56:21.585Z,96.70
2018-07-09T18:58:50.641Z,97.40
2018-07-09T19:01:19.312Z,96.90
2018-07-09T19:03:48.360Z,97.40
2018-07-09T19:06:56.265Z,97.30
2018-07-09T19:09:25.766Z,97.90
2018-07-09T19:11:54.477Z,98.30
2018-07-09T19:14:29.977Z,98.30
2018-07-09T19:18:14.480Z,98.00
2018-07-09T19:21:55.564Z,97.90
2018-07-09T19:24:22.960Z,98.00
2018-07-09T19:26:50.363Z,99.90
2018-07-09T19:29:17.910Z,98.60
2018-07-09T19:31:45.556Z,98.80
2018-07-09T19:34:13.172Z,99.50
2018-07-09T19:36:40.763Z,99.90
2018-07-09T19:39:08.905Z,99.90
2018-07-09T19:41:36.330Z,99.90
2018-07-09T19:44:03.720Z,99.90
2018-07-09T19:46:31.259Z,99.90
2018-07-09T19:48:58.894Z,99.90
2018-07-09T19:51:26.339Z,99.80
2018-07-09T19:53:53.688Z,99.90
2018-07-09T19:56:21.164Z,99.90
2018-07-09T19:58:48.755Z,99.90
2018-07-09T20:01:16.214Z,99.70
2018-07-09T20:03:43.571Z,99.90
2018-07-09T20:06:11.129Z,99.90
2018-07-09T20:08:43.679Z,99.90
2018-07-09T20:13:21.865Z,99.90
2018-07-09T20:15:54.557Z,99.90
2018-07-09T20:18:21.940Z,99.90
2018-07-09T20:20:49.352Z,99.90
2018-07-09T20:23:16.738Z,99.90
2018-07-09T20:25:44.118Z,99.90
2018-07-09T20:28:11.521Z,99.90
2018-07-09T20:30:38.867Z,99.60
2018-07-09T20:33:06.475Z,99.60
2018-07-09T20:35:33.964Z,99.90
2018-07-09T20:38:01.524Z,99.90
2018-07-09T20:40:29.070Z,99.90
2018-07-09T20:42:56.776Z,99.90
2018-07-09T20:45:24.116Z,99.90
2018-07-09T20:47:51.698Z,99.00
2018-07-09T20:50:24.011Z,99.50
2018-07-09T20:52:51.567Z,99.90
2018-07-09T20:55:19.535Z,99.70
2018-07-09T20:57:46.935Z,99.90
2018-07-09T21:00:14.467Z,99.80
2018-07-09T21:02:41.821Z,99.90
2018-07-09T21:05:09.207Z,99.90
2018-07-09T21:07:36.668Z,99.50
2018-07-09T21:10:04.096Z,99.00
2018-07-09T21:12:31.638Z,99.60
2018-07-09T21:14:59.233Z,99.90
2018-07-09T21:17:26.536Z,99.90
2018-07-09T21:19:53.957Z,99.90
2018-07-09T21:22:21.793Z,99.90
2018-07-09T21:24:49.455Z,99.20
2018-07-09T21:27:16.939Z,98.90
2018-07-09T21:29:44.391Z,99.40
2018-07-09T21:32:11.828Z,99.40
2018-07-09T21:34:39.205Z,99.30
2018-07-09T21:37:06.561Z,98.30
2018-07-09T21:39:33.986Z,99.10
2018-07-09T21:42:01.383Z,98.80
2018-07-09T21:44:29.126Z,99.10
2018-07-09T21:46:56.514Z,99.60
2018-07-09T21:49:23.849Z,99.90
2018-07-09T21:51:51.233Z,99.60
2018-07-09T21:54:18.802Z,99.90
2018-07-09T21:56:46.193Z,98.70
2018-07-09T21:59:13.705Z,98.60
2018-07-09T22:01:41.055Z,99.90
2018-07-09T22:04:08.485Z,99.80
2018-07-09T22:06:35.823Z,99.90
2018-07-09T22:09:03.387Z,99.90
2018-07-09T22:11:30.994Z,99.90
2018-07-09T22:13:58.457Z,99.90
2018-07-09T22:16:25.820Z,99.90
2018-07-09T22:18:53.268Z,99.90
2018-07-09T22:21:20.764Z,99.90
2018-07-09T22:23:48.134Z,99.90
2018-07-09T22:26:15.809Z,99.90
2018-07-09T22:28:43.179Z,99.90
2018-07-09T22:31:11.707Z,99.90
2018-07-09T22:33:40.405Z,99.90
2018-07-09T22:36:09.529Z,99.90
2018-07-09T22:41:06.275Z,99.90
2018-07-09T22:43:46.306Z,99.90
2018-07-09T22:46:14.848Z,99.90
2018-07-09T22:48:43.519Z,99.90
2018-07-09T22:51:12.074Z,99.90
2018-07-09T22:53:40.596Z,99.90
2018-07-09T22:56:12.426Z,99.90
2018-07-09T22:58:41.877Z,99.90
2018-07-09T23:01:10.648Z,99.90
2018-07-09T23:03:39.212Z,99.90
2018-07-09T23:08:36.223Z,99.90
2018-07-09T23:11:15.836Z,99.90
2018-07-09T23:13:54.328Z,99.90
2018-07-09T23:16:45.448Z,99.90
2018-07-09T23:19:26.848Z,99.90
2018-07-09T23:22:06.826Z,99.90
2018-07-09T23:24:34.196Z,99.90
2018-07-09T23:27:01.540Z,99.90
2018-07-09T23:29:28.888Z,99.90
2018-07-09T23:31:56.235Z,99.90
2018-07-09T23:34:23.599Z,99.80
2018-07-09T23:36:50.919Z,99.90
2018-07-09T23:39:18.277Z,99.90
2018-07-09T23:41:45.615Z,99.90
2018-07-09T23:44:12.993Z,99.90
2018-07-09T23:46:40.362Z,99.90
2018-07-09T23:49:07.777Z,99.90
2018-07-09T23:51:35.101Z,99.90
2018-07-09T23:54:02.486Z,99.00
2018-07-09T23:59:41.435Z,99.80
